Westover AFB, Massachusetts
Current Conditions -  °F | °C
As of 1:58 PM on Friday 28 Nov 2014 (Local Time) from KCEF Reporting Station
Overcast Overcast  
Wind Chill: 26°   Ceiling: 4000
Heat Index: 34°   Visibility: 10mi
Dew Point: 18°   Wind: 10mph
Humidity: 52%   Direction: 310°NW
Pressure: 30.08"   Gusts: NA
Location:  42.1968°N, 72.5424°W
Report Text: KCEF 281858Z AUTO 31009KT 10SM OVC040 01/M08 A3008 RMK AO2 SLP195 T00101078
Loading
Personal Weather Stations






























Interactive Weather Map New forecast layout! Learn more

10-Day Weather Forecast

Advertisements
Track Severe Weather on mobile